Time;durP1;ratioP1;P1;durP2;ratioP2;P2;SDS_P1;SDS_P2;PMS_P1;PMS_P2;Temp;Humidity;BMP_temperature;BMP_pressure;BME280_temperature;BME280_humidity;BME280_pressure;Samples;Min_cycle;Max_cycle;Signal;HPM_P1;HPM_P2
2021/12/23 00:00:12;;;;;;;289.83;135.55;;;-2.20;1.00;;;;;;5040489;28;20144;-78
2021/12/23 00:02:40;;;;;;;310.00;143.85;;;-2.30;1.00;;;;;;5058526;28;20086;-79
2021/12/23 00:05:09;;;;;;;337.75;149.55;;;-2.30;1.00;;;;;;5058427;28;20436;-79
2021/12/23 00:07:38;;;;;;;270.73;127.80;;;-2.40;1.00;;;;;;5058317;28;20574;-78
2021/12/23 00:10:09;;;;;;;263.27;121.53;;;-2.40;1.00;;;;;;5041996;28;20114;-78
2021/12/23 00:12:39;;;;;;;335.38;150.05;;;-2.50;1.00;;;;;;5060309;28;20073;-77
2021/12/23 00:15:16;;;;;;;300.95;139.57;;;-2.50;1.00;;;;;;5058778;28;20564;-78
2021/12/23 00:23:25;;;;;;;307.92;142.50;;;-2.60;1.00;;;;;;5071733;28;20032;-78
2021/12/23 00:25:54;;;;;;;281.80;134.80;;;-2.70;1.00;;;;;;5049815;28;20047;-80
2021/12/23 00:28:22;;;;;;;251.15;122.93;;;-2.70;1.00;;;;;;5043385;28;20136;-79
2021/12/23 00:30:50;;;;;;;271.13;128.57;;;-2.70;1.00;;;;;;5042852;28;20045;-79
2021/12/23 00:33:17;;;;;;;288.48;136.85;;;-2.70;1.00;;;;;;5060611;28;20076;-78
2021/12/23 00:35:45;;;;;;;254.05;126.80;;;-2.80;1.00;;;;;;5057733;28;20072;-77
2021/12/23 00:38:19;;;;;;;280.73;140.90;;;-2.90;1.00;;;;;;5040255;28;20136;-77
2021/12/23 00:40:48;;;;;;;260.55;132.27;;;-2.90;1.00;;;;;;5040062;28;20041;-77
2021/12/23 00:43:16;;;;;;;228.63;119.25;;;-3.00;1.00;;;;;;5058327;28;20041;-78
2021/12/23 00:45:43;;;;;;;247.75;126.55;;;-3.00;1.00;;;;;;5038857;28;20053;-78
2021/12/23 00:48:11;;;;;;;255.90;128.82;;;-3.00;1.00;;;;;;5057980;28;20404;-77
2021/12/23 00:50:39;;;;;;;240.57;123.05;;;-3.00;1.00;;;;;;5058469;28;20071;-80
2021/12/23 00:53:08;;;;;;;224.15;107.85;;;-3.00;1.00;;;;;;5042320;28;20523;-79
2021/12/23 00:55:36;;;;;;;231.18;115.70;;;-3.00;1.00;;;;;;5040496;28;20045;-79
2021/12/23 00:58:05;;;;;;;176.98;91.50;;;-3.00;1.00;;;;;;5059186;28;20510;-79
2021/12/23 01:00:33;;;;;;;167.63;85.03;;;-3.10;1.00;;;;;;5060711;28;20492;-81
2021/12/23 01:03:03;;;;;;;159.13;79.40;;;-3.10;1.00;;;;;;5044661;28;20052;-80
2021/12/23 01:05:31;;;;;;;159.98;83.20;;;-3.10;1.00;;;;;;5059802;28;20052;-77
2021/12/23 01:07:58;;;;;;;157.45;78.93;;;-3.00;1.00;;;;;;5056742;28;20484;-78
2021/12/23 01:10:27;;;;;;;168.00;84.28;;;-3.10;1.00;;;;;;5056492;28;20041;-79
2021/12/23 01:12:59;;;;;;;159.25;83.13;;;-3.10;1.00;;;;;;5060838;28;20102;-78
2021/12/23 01:18:23;;;;;;;170.90;85.78;;;-3.20;1.00;;;;;;5014553;28;20464;-79
2021/12/23 01:20:52;;;;;;;169.25;85.57;;;-3.20;1.00;;;;;;5043782;28;20045;-79
2021/12/23 01:23:22;;;;;;;177.65;89.63;;;-3.20;1.00;;;;;;5054324;28;20076;-77
2021/12/23 01:25:52;;;;;;;179.55;90.68;;;-3.20;1.00;;;;;;5070848;28;20036;-78
2021/12/23 01:28:20;;;;;;;180.07;94.28;;;-3.30;1.00;;;;;;5077837;28;20044;-77
2021/12/23 01:30:50;;;;;;;151.48;80.38;;;-3.30;1.00;;;;;;5046840;28;20083;-79
2021/12/23 01:33:17;;;;;;;170.90;87.93;;;-3.30;1.00;;;;;;5038844;28;20075;-79
2021/12/23 01:35:49;;;;;;;202.18;105.63;;;-3.40;1.00;;;;;;5038033;28;20064;-79
2021/12/23 01:38:17;;;;;;;171.18;89.97;;;-3.40;1.00;;;;;;5055428;28;20053;-78
2021/12/23 01:40:46;;;;;;;173.73;89.45;;;-3.50;1.00;;;;;;5057374;28;20041;-79
2021/12/23 01:43:16;;;;;;;158.95;83.80;;;-3.50;1.00;;;;;;5057144;28;20128;-77
2021/12/23 01:45:46;;;;;;;144.57;76.85;;;-3.40;1.00;;;;;;5057915;28;20056;-77
2021/12/23 01:48:17;;;;;;;135.32;69.43;;;-3.50;1.00;;;;;;5046291;28;20052;-78
2021/12/23 01:50:44;;;;;;;140.73;73.32;;;-3.40;1.00;;;;;;5078052;28;20139;-77
2021/12/23 01:53:12;;;;;;;146.30;75.70;;;-3.50;1.00;;;;;;5075160;28;20068;-78
2021/12/23 01:55:42;;;;;;;141.73;75.78;;;-3.60;1.00;;;;;;5077733;28;20049;-77
2021/12/23 01:58:12;;;;;;;157.65;80.03;;;-3.70;1.00;;;;;;5051160;28;20103;-78
2021/12/23 02:00:43;;;;;;;145.75;78.70;;;-3.80;1.00;;;;;;5082496;28;20038;-79
2021/12/23 02:03:11;;;;;;;149.82;77.93;;;-3.80;1.00;;;;;;5075126;28;20420;-78
2021/12/23 02:05:41;;;;;;;146.82;77.43;;;-3.70;1.00;;;;;;5062915;28;20055;-78
2021/12/23 02:08:09;;;;;;;157.95;82.20;;;-3.70;1.00;;;;;;5067462;28;20045;-77
2021/12/23 02:10:39;;;;;;;163.43;84.43;;;-3.70;1.00;;;;;;5074542;28;20047;-78
2021/12/23 02:13:06;;;;;;;170.18;86.30;;;-3.70;1.00;;;;;;5081535;28;20067;-78
2021/12/23 02:15:34;;;;;;;171.48;89.65;;;-3.80;1.00;;;;;;5065090;28;20041;-79
2021/12/23 02:18:01;;;;;;;168.40;87.32;;;-3.70;1.00;;;;;;5067835;28;20113;-79
2021/12/23 02:20:32;;;;;;;194.95;97.32;;;-3.80;1.00;;;;;;5082679;28;20074;-77
2021/12/23 02:23:00;;;;;;;173.15;89.00;;;-3.80;1.00;;;;;;5062322;28;20063;-80
2021/12/23 02:25:28;;;;;;;179.20;91.00;;;-3.80;1.00;;;;;;5060401;28;20064;-80
2021/12/23 02:28:07;;;;;;;171.40;88.28;;;-3.80;1.00;;;;;;5042679;28;20071;-80
2021/12/23 02:30:37;;;;;;;155.75;79.75;;;-3.80;1.00;;;;;;5066070;28;20044;-80
2021/12/23 02:33:06;;;;;;;154.32;77.80;;;-3.90;1.00;;;;;;5061308;28;20067;-81
2021/12/23 02:35:36;;;;;;;170.90;86.78;;;-3.80;1.00;;;;;;5050267;28;20113;-80
2021/12/23 02:38:04;;;;;;;157.30;80.30;;;-3.80;1.00;;;;;;5052330;28;20031;-78
2021/12/23 02:40:34;;;;;;;151.60;77.57;;;-3.70;1.00;;;;;;5070236;28;20111;-81
2021/12/23 02:43:11;;;;;;;163.60;80.07;;;-3.80;1.00;;;;;;5043946;28;20405;-81
2021/12/23 02:45:40;;;;;;;159.25;77.88;;;-3.70;1.00;;;;;;5026167;28;20046;-82
2021/12/23 02:48:13;;;;;;;176.75;84.40;;;-3.80;1.00;;;;;;5059260;28;20507;-81
2021/12/23 02:50:42;;;;;;;181.60;86.85;;;-3.80;1.00;;;;;;5063634;28;20060;-79
2021/12/23 02:53:10;;;;;;;162.38;79.63;;;-3.90;1.00;;;;;;5046901;28;20132;-81
2021/12/23 02:55:38;;;;;;;148.00;71.18;;;-4.00;1.00;;;;;;5068357;28;20049;-81
2021/12/23 02:58:06;;;;;;;131.88;66.88;;;-4.00;1.00;;;;;;5047292;28;20045;-80
2021/12/23 03:00:33;;;;;;;126.07;61.78;;;-4.00;1.00;;;;;;5068939;28;20093;-78
2021/12/23 03:03:01;;;;;;;99.63;51.05;;;-4.00;1.00;;;;;;5070724;28;20100;-79
2021/12/23 03:05:29;;;;;;;82.82;39.92;;;-4.10;1.00;;;;;;5068364;28;20131;-80
2021/12/23 03:07:59;;;;;;;95.93;47.65;;;-4.10;1.00;;;;;;5071906;28;20084;-79
2021/12/23 03:10:27;;;;;;;111.47;54.40;;;-4.10;1.00;;;;;;5075821;28;20044;-79
2021/12/23 03:12:54;;;;;;;124.45;61.17;;;-4.10;1.00;;;;;;5066031;28;20056;-82
2021/12/23 03:15:22;;;;;;;141.73;67.10;;;-4.10;1.00;;;;;;5065257;28;20040;-81
2021/12/23 03:17:49;;;;;;;136.02;67.03;;;-4.20;1.00;;;;;;5040353;28;20044;-81
2021/12/23 03:20:17;;;;;;;132.15;69.75;;;-4.30;1.00;;;;;;5070007;28;20527;-80
2021/12/23 03:22:44;;;;;;;133.13;69.90;;;-4.30;1.00;;;;;;5069526;28;20053;-80
2021/12/23 03:25:13;;;;;;;133.73;70.25;;;-4.30;1.00;;;;;;5069172;28;20511;-79
2021/12/23 03:27:41;;;;;;;131.52;70.45;;;-4.30;1.00;;;;;;5076068;28;20096;-80
2021/12/23 03:30:09;;;;;;;126.38;66.78;;;-4.30;1.00;;;;;;5079387;28;20067;-80
2021/12/23 03:32:37;;;;;;;125.35;65.13;;;-4.20;1.00;;;;;;5063713;28;20435;-79
2021/12/23 03:35:05;;;;;;;131.90;67.28;;;-4.30;1.00;;;;;;5042460;28;20041;-80
2021/12/23 03:37:32;;;;;;;129.73;65.75;;;-4.30;1.00;;;;;;5043934;28;20055;-80
2021/12/23 03:40:00;;;;;;;125.85;66.20;;;-4.40;1.00;;;;;;5061278;28;20068;-80
2021/12/23 03:42:29;;;;;;;119.13;61.00;;;-4.40;1.00;;;;;;5063246;28;20100;-81
2021/12/23 03:44:56;;;;;;;117.03;60.92;;;-4.30;1.00;;;;;;5064383;28;20053;-81
2021/12/23 03:47:24;;;;;;;123.22;64.15;;;-4.40;1.00;;;;;;5047600;28;20049;-79
2021/12/23 03:49:51;;;;;;;115.60;62.60;;;-4.50;1.00;;;;;;5058433;28;20388;-79
2021/12/23 03:52:19;;;;;;;96.95;53.03;;;-4.50;1.00;;;;;;5062063;28;20498;-79
2021/12/23 03:54:46;;;;;;;94.63;51.20;;;-4.50;1.00;;;;;;5056821;28;20152;-79
2021/12/23 03:57:14;;;;;;;93.82;50.65;;;-4.50;1.00;;;;;;5038279;28;20037;-80
2021/12/23 03:59:43;;;;;;;99.75;54.60;;;-4.50;1.00;;;;;;5037435;28;20041;-80
2021/12/23 04:02:10;;;;;;;111.03;57.38;;;-4.50;1.00;;;;;;5056040;28;20476;-79
2021/12/23 04:04:38;;;;;;;106.13;55.83;;;-4.50;1.00;;;;;;5038841;28;20479;-81
2021/12/23 04:07:06;;;;;;;83.38;45.83;;;-4.50;1.00;;;;;;5057959;28;20041;-80
2021/12/23 04:09:34;;;;;;;72.07;37.78;;;-4.50;1.00;;;;;;5038882;28;20067;-80
2021/12/23 04:12:01;;;;;;;65.85;36.85;;;-4.50;1.00;;;;;;5056188;28;20120;-79
2021/12/23 04:14:29;;;;;;;57.88;30.30;;;-4.50;1.00;;;;;;5055596;28;20045;-79
2021/12/23 04:16:58;;;;;;;76.15;41.78;;;-4.50;1.00;;;;;;5054345;28;20041;-80
2021/12/23 04:19:30;;;;;;;107.15;54.03;;;-4.50;1.00;;;;;;5038712;28;20141;-80
2021/12/23 04:21:58;;;;;;;117.97;60.05;;;-4.50;1.00;;;;;;5056970;28;20045;-80
2021/12/23 04:24:26;;;;;;;109.78;56.80;;;-4.50;1.00;;;;;;5058135;28;20053;-81
2021/12/23 04:26:54;;;;;;;104.57;57.88;;;-4.50;1.00;;;;;;5057255;28;20033;-79
2021/12/23 04:29:23;;;;;;;117.82;59.67;;;-4.50;1.00;;;;;;5039507;28;20049;-78
2021/12/23 04:31:51;;;;;;;101.30;54.35;;;-4.50;1.00;;;;;;5036434;28;20453;-80
2021/12/23 04:34:19;;;;;;;105.55;56.38;;;-4.60;1.00;;;;;;5038719;28;20464;-79
2021/12/23 04:36:47;;;;;;;105.07;54.85;;;-4.50;1.00;;;;;;5037613;28;20041;-79
2021/12/23 04:39:14;;;;;;;130.80;57.92;;;-4.60;1.00;;;;;;5037977;28;20415;-80
2021/12/23 04:41:42;;;;;;;132.35;58.40;;;-4.60;1.00;;;;;;5045952;28;20041;-80
2021/12/23 04:44:10;;;;;;;152.80;65.13;;;-4.60;1.00;;;;;;5059154;28;20101;-82
2021/12/23 04:46:37;;;;;;;129.57;59.13;;;-4.50;1.00;;;;;;5061016;28;20037;-81
2021/12/23 04:49:05;;;;;;;123.10;59.65;;;-4.60;1.00;;;;;;5043891;28;20075;-80
2021/12/23 04:51:34;;;;;;;104.40;52.03;;;-4.60;1.00;;;;;;5062863;28;20044;-81
2021/12/23 04:54:01;;;;;;;94.90;50.03;;;-4.60;1.00;;;;;;5071033;28;20108;-77
2021/12/23 04:56:29;;;;;;;90.00;46.92;;;-4.60;1.00;;;;;;5072658;28;20127;-81
2021/12/23 04:58:56;;;;;;;82.20;43.42;;;-4.60;1.00;;;;;;5061389;28;20075;-81
2021/12/23 05:01:29;;;;;;;93.80;48.35;;;-4.50;1.00;;;;;;5061380;28;20045;-82
2021/12/23 05:03:57;;;;;;;99.75;52.15;;;-4.50;1.00;;;;;;5061013;28;20089;-80
2021/12/23 05:06:24;;;;;;;126.93;66.93;;;-4.50;1.00;;;;;;5060860;28;20049;-80
2021/12/23 05:08:54;;;;;;;116.68;64.10;;;-4.70;1.00;;;;;;5061007;28;20056;-80
2021/12/23 05:11:21;;;;;;;132.35;67.72;;;-4.70;1.00;;;;;;5061214;28;20512;-79
2021/12/23 05:13:48;;;;;;;138.57;68.18;;;-4.60;1.00;;;;;;5042454;28;20049;-80
2021/12/23 05:16:16;;;;;;;127.03;66.72;;;-4.70;1.00;;;;;;5055170;28;20037;-79
2021/12/23 05:18:44;;;;;;;131.40;68.10;;;-4.60;1.00;;;;;;5045464;28;20072;-81
2021/12/23 05:21:11;;;;;;;155.18;74.00;;;-4.70;1.00;;;;;;5039250;28;20050;-80
2021/12/23 05:23:39;;;;;;;139.43;68.93;;;-4.70;1.00;;;;;;5043246;28;20056;-79
2021/12/23 05:26:09;;;;;;;134.43;65.15;;;-4.70;1.00;;;;;;5055835;28;20036;-79
2021/12/23 05:28:37;;;;;;;118.28;58.58;;;-4.60;1.00;;;;;;5058873;28;20026;-79
2021/12/23 05:31:05;;;;;;;139.70;66.10;;;-4.60;1.00;;;;;;5060272;28;20992;-78
2021/12/23 05:33:33;;;;;;;142.23;73.55;;;-4.60;1.00;;;;;;5057849;28;20067;-78
2021/12/23 05:36:01;;;;;;;129.15;65.72;;;-4.60;1.00;;;;;;5074223;28;20045;-79
2021/12/23 05:38:28;;;;;;;132.02;67.60;;;-4.70;1.00;;;;;;5074690;28;20033;-79
2021/12/23 05:40:56;;;;;;;142.35;72.32;;;-4.70;1.00;;;;;;5076800;28;20021;-79
2021/12/23 05:43:25;;;;;;;140.65;70.18;;;-4.70;1.00;;;;;;5078874;28;20125;-80
2021/12/23 05:45:52;;;;;;;110.35;58.10;;;-4.60;1.00;;;;;;5076425;28;20033;-78
2021/12/23 05:48:20;;;;;;;99.32;50.92;;;-4.50;1.00;;;;;;5074330;28;20037;-79
2021/12/23 05:50:47;;;;;;;114.32;53.28;;;-4.40;1.00;;;;;;5071459;28;20075;-78
2021/12/23 05:53:15;;;;;;;130.82;62.53;;;-4.30;1.00;;;;;;5064542;28;20079;-80
2021/12/23 05:55:42;;;;;;;143.48;67.10;;;-4.30;1.00;;;;;;5059157;28;20480;-80
2021/12/23 05:58:09;;;;;;;160.48;76.45;;;-4.20;1.00;;;;;;5060703;28;20048;-79
2021/12/23 06:00:38;;;;;;;177.60;85.43;;;-4.20;1.00;;;;;;5058776;28;20107;-78
2021/12/23 06:03:06;;;;;;;169.40;80.10;;;-4.10;1.00;;;;;;5056916;28;20099;-79
2021/12/23 06:05:33;;;;;;;151.38;69.95;;;-4.10;1.00;;;;;;5041054;28;20037;-79
2021/12/23 06:08:01;;;;;;;170.48;80.07;;;-4.00;1.00;;;;;;5060336;28;20125;-79
2021/12/23 06:10:28;;;;;;;153.15;72.18;;;-4.00;1.00;;;;;;5061211;28;20053;-79
2021/12/23 06:12:56;;;;;;;147.80;69.10;;;-3.90;1.00;;;;;;5043508;28;20052;-79
2021/12/23 06:15:24;;;;;;;145.65;70.53;;;-3.90;1.00;;;;;;5077287;28;20144;-79
2021/12/23 06:17:53;;;;;;;144.35;67.32;;;-3.80;1.00;;;;;;5044617;28;20467;-79
2021/12/23 06:20:21;;;;;;;132.10;62.67;;;-3.80;1.00;;;;;;5045388;28;20044;-81
2021/12/23 06:22:48;;;;;;;145.52;71.15;;;-3.70;1.00;;;;;;5061384;28;20079;-78
2021/12/23 06:25:16;;;;;;;148.48;71.03;;;-3.80;1.00;;;;;;5079243;28;20053;-79
2021/12/23 06:27:44;;;;;;;164.43;76.47;;;-3.80;1.00;;;;;;5079877;28;20164;-81
2021/12/23 06:30:18;;;;;;;162.85;76.38;;;-3.90;1.00;;;;;;5079494;28;20064;-80
2021/12/23 06:32:47;;;;;;;148.07;69.95;;;-3.90;1.00;;;;;;5062513;28;20049;-81
2021/12/23 06:35:16;;;;;;;163.25;74.82;;;-3.90;1.00;;;;;;5058869;28;20071;-81
2021/12/23 06:37:44;;;;;;;156.85;72.68;;;-3.90;1.00;;;;;;5058044;28;20045;-81
2021/12/23 06:40:13;;;;;;;151.13;69.28;;;-4.00;1.00;;;;;;5059086;28;20037;-81
2021/12/23 06:42:40;;;;;;;199.23;93.07;;;-3.90;1.00;;;;;;5058504;28;20037;-81
2021/12/23 06:45:10;;;;;;;191.35;92.22;;;-3.90;1.00;;;;;;5057479;28;20076;-79
2021/12/23 06:47:38;;;;;;;183.35;89.68;;;-4.00;1.00;;;;;;5040346;28;20467;-81
2021/12/23 06:50:07;;;;;;;194.25;87.97;;;-4.00;1.00;;;;;;5057773;28;20582;-80
2021/12/23 06:52:37;;;;;;;198.43;88.50;;;-3.90;1.00;;;;;;5070117;28;20586;-81
2021/12/23 06:55:05;;;;;;;183.65;87.22;;;-3.90;1.00;;;;;;5038453;28;20049;-79
2021/12/23 06:57:33;;;;;;;182.77;83.65;;;-3.80;1.00;;;;;;5037713;28;20060;-80
2021/12/23 07:00:01;;;;;;;210.32;97.78;;;-3.60;1.00;;;;;;5040145;28;20095;-79
2021/12/23 07:02:28;;;;;;;222.27;101.30;;;-3.40;1.00;;;;;;5041989;28;20072;-81
2021/12/23 07:04:56;;;;;;;209.43;94.15;;;-3.20;1.00;;;;;;5040741;28;20057;-80
2021/12/23 07:07:28;;;;;;;205.63;94.07;;;-2.90;1.00;;;;;;5078590;28;20037;-78
2021/12/23 07:09:58;;;;;;;198.07;92.60;;;-2.80;1.00;;;;;;5063154;28;20507;-79
2021/12/23 07:12:26;;;;;;;241.75;112.57;;;-2.50;1.00;;;;;;5042858;28;20136;-81
2021/12/23 07:14:53;;;;;;;276.55;131.07;;;-2.50;99.90;;;;;;5079734;28;20392;-81
2021/12/23 07:17:20;;;;;;;353.77;164.70;;;-2.60;99.90;;;;;;5062084;28;20353;-78
2021/12/23 07:19:48;;;;;;;347.27;161.40;;;-2.50;99.90;;;;;;5049882;28;20072;-80
2021/12/23 07:22:15;;;;;;;237.38;111.55;;;-2.50;99.90;;;;;;5067882;28;20047;-79
2021/12/23 07:24:43;;;;;;;206.68;99.57;;;-2.50;99.90;;;;;;5061171;28;20047;-80
2021/12/23 07:27:12;;;;;;;208.40;100.53;;;-2.40;99.90;;;;;;5061852;28;20045;-80
2021/12/23 07:29:39;;;;;;;252.75;113.85;;;-2.30;99.90;;;;;;5060799;28;20041;-80
2021/12/23 07:32:08;;;;;;;269.63;122.28;;;-2.10;99.90;;;;;;5040362;28;20037;-80
2021/12/23 07:34:39;;;;;;;283.45;129.75;;;-1.90;99.90;;;;;;5057619;28;20100;-80
2021/12/23 07:37:06;;;;;;;252.68;119.40;;;-1.80;99.90;;;;;;5048990;28;20075;-80
2021/12/23 07:39:34;;;;;;;262.10;125.57;;;-1.80;99.90;;;;;;5069401;28;20037;-80
2021/12/23 07:42:01;;;;;;;269.70;129.70;;;-1.60;99.90;;;;;;5070433;28;20044;-76
2021/12/23 07:44:31;;;;;;;282.67;135.00;;;-1.50;99.90;;;;;;5072243;28;20017;-80
2021/12/23 07:46:59;;;;;;;280.58;134.13;;;-1.30;99.90;;;;;;5071800;28;20025;-78
2021/12/23 07:49:27;;;;;;;275.35;131.50;;;-1.30;99.90;;;;;;5072785;28;20056;-78
2021/12/23 07:51:56;;;;;;;264.17;127.72;;;-1.10;99.90;;;;;;5072853;28;20064;-81
2021/12/23 07:54:24;;;;;;;259.08;126.15;;;-1.10;99.90;;;;;;5062895;28;20526;-79
2021/12/23 07:56:52;;;;;;;256.45;127.70;;;-1.00;99.90;;;;;;5058610;28;20108;-81
2021/12/23 07:59:19;;;;;;;267.70;131.07;;;-0.90;99.90;;;;;;5059630;28;20033;-78
2021/12/23 08:01:48;;;;;;;317.95;152.70;;;-0.80;99.90;;;;;;5057786;28;20172;-78
2021/12/23 08:04:15;;;;;;;317.40;154.05;;;-0.80;99.90;;;;;;5063287;28;20061;-79
2021/12/23 08:06:43;;;;;;;296.90;144.02;;;-0.90;99.90;;;;;;5059717;28;20464;-80
2021/12/23 08:09:11;;;;;;;259.52;133.02;;;-0.80;99.90;;;;;;5073697;28;20492;-81
2021/12/23 08:11:38;;;;;;;264.33;128.77;;;-0.80;99.90;;;;;;5076506;28;20063;-79
2021/12/23 08:14:06;;;;;;;256.90;129.30;;;-0.80;99.90;;;;;;5067034;28;20057;-79
2021/12/23 08:16:33;;;;;;;276.45;141.73;;;-0.80;99.90;;;;;;5057792;28;20041;-80
2021/12/23 08:19:02;;;;;;;283.30;147.18;;;-0.60;99.90;;;;;;5058458;28;20029;-79
2021/12/23 08:21:30;;;;;;;296.15;151.13;;;-0.50;99.90;;;;;;5054222;28;20041;-77
2021/12/23 08:23:57;;;;;;;299.33;151.77;;;-0.30;99.90;;;;;;5041548;28;20053;-79
2021/12/23 08:26:28;;;;;;;287.63;145.52;;;-0.30;99.90;;;;;;5060705;28;20040;-78
2021/12/23 08:28:55;;;;;;;270.60;139.43;;;-0.30;99.90;;;;;;5041099;28;20045;-79
2021/12/23 08:31:23;;;;;;;265.08;137.68;;;-0.10;99.90;;;;;;5058892;28;20048;-78
2021/12/23 08:33:51;;;;;;;256.17;135.38;;;0.00;99.90;;;;;;5041475;28;20048;-78
2021/12/23 08:36:20;;;;;;;262.92;138.23;;;0.00;99.90;;;;;;5061358;28;20044;-78
2021/12/23 08:38:48;;;;;;;268.70;138.43;;;0.10;99.90;;;;;;5060414;28;20443;-79
2021/12/23 08:41:17;;;;;;;268.17;140.18;;;0.10;99.90;;;;;;5041103;28;20128;-78
2021/12/23 08:43:45;;;;;;;264.40;136.73;;;0.20;99.90;;;;;;5077992;28;20048;-80
2021/12/23 08:46:13;;;;;;;263.73;137.30;;;0.30;99.90;;;;;;5061888;28;20412;-80
2021/12/23 08:48:40;;;;;;;258.30;135.55;;;0.30;99.90;;;;;;5061620;28;20138;-80
2021/12/23 08:51:08;;;;;;;268.15;134.30;;;0.40;99.90;;;;;;5061206;28;20152;-79
2021/12/23 08:53:37;;;;;;;246.85;131.90;;;0.50;99.90;;;;;;5079494;28;20438;-80
2021/12/23 08:56:08;;;;;;;230.80;121.15;;;0.60;99.90;;;;;;5064456;28;20040;-80
2021/12/23 08:58:36;;;;;;;229.68;115.40;;;0.60;99.90;;;;;;5056672;28;20059;-78
2021/12/23 09:01:05;;;;;;;245.82;125.85;;;0.70;98.90;;;;;;5070271;28;20073;-78
2021/12/23 09:03:33;;;;;;;268.70;134.75;;;0.60;97.10;;;;;;5034928;28;20053;-79
2021/12/23 09:06:01;;;;;;;275.10;139.95;;;0.70;99.90;;;;;;5069585;28;20044;-79
2021/12/23 09:08:29;;;;;;;291.90;148.75;;;0.80;97.50;;;;;;5052466;28;20067;-80
2021/12/23 09:10:59;;;;;;;284.90;144.75;;;0.90;92.70;;;;;;5068945;28;20044;-78
2021/12/23 09:13:28;;;;;;;242.20;123.88;;;0.90;88.70;;;;;;5066015;28;20044;-79
2021/12/23 09:15:56;;;;;;;242.20;126.63;;;1.00;85.00;;;;;;5066712;28;20055;-78
2021/12/23 09:18:24;;;;;;;251.35;130.48;;;1.20;84.80;;;;;;5078710;28;20041;-78
2021/12/23 09:20:52;;;;;;;253.02;133.73;;;1.30;89.00;;;;;;5080451;28;20052;-79
2021/12/23 09:23:20;;;;;;;230.75;123.30;;;1.40;85.40;;;;;;5079413;28;20051;-78
2021/12/23 09:25:49;;;;;;;262.23;138.27;;;1.70;73.30;;;;;;5061869;28;20075;-80
2021/12/23 09:28:29;;;;;;;257.92;135.80;;;1.70;63.90;;;;;;5059517;28;20040;-79
2021/12/23 09:33:44;;;;;;;277.63;141.23;;;1.90;48.60;;;;;;5055581;28;20037;-79
2021/12/23 09:36:13;;;;;;;267.42;142.38;;;2.00;42.60;;;;;;5064601;28;20055;-80
2021/12/23 09:38:41;;;;;;;288.02;147.65;;;2.00;39.60;;;;;;5070829;28;20049;-77
2021/12/23 09:41:11;;;;;;;275.50;143.07;;;2.20;33.40;;;;;;5060785;28;20049;-79
2021/12/23 09:43:41;;;;;;;288.58;150.40;;;2.30;25.40;;;;;;5041445;28;20057;-79
2021/12/23 09:49:16;;;;;;;289.20;151.77;;;2.60;14.90;;;;;;5057125;28;20048;-78
2021/12/23 09:51:44;;;;;;;258.95;138.30;;;2.70;7.90;;;;;;5035281;28;20080;-79
2021/12/23 09:54:13;;;;;;;249.63;130.40;;;2.60;4.70;;;;;;5067124;28;20446;-78
2021/12/23 09:56:40;;;;;;;236.27;126.38;;;2.60;1.80;;;;;;5060745;28;20056;-79
2021/12/23 09:59:09;;;;;;;250.98;132.32;;;2.70;1.00;;;;;;5075151;28;20153;-78
2021/12/23 10:01:37;;;;;;;283.85;146.18;;;2.70;1.00;;;;;;5060922;28;20040;-76
2021/12/23 10:04:05;;;;;;;279.13;137.90;;;2.80;1.00;;;;;;5051108;28;20064;-78
2021/12/23 10:06:34;;;;;;;252.98;131.75;;;2.90;1.00;;;;;;5057615;28;20063;-78
2021/12/23 10:09:02;;;;;;;263.05;136.02;;;3.10;1.00;;;;;;5038563;28;20505;-78
2021/12/23 10:11:42;;;;;;;232.82;129.65;;;3.20;1.00;;;;;;5072602;28;20454;-77
2021/12/23 10:31:04;;;;;;;240.93;128.45;;;4.00;1.00;;;;;;5024546;28;20066;-77
2021/12/23 10:33:48;;;;;;;228.65;123.90;;;4.00;1.00;;;;;;5075733;28;20044;-76
2021/12/23 10:39:23;;;;;;;210.38;112.20;;;4.30;1.00;;;;;;5078774;28;20107;-77
2021/12/23 10:41:50;;;;;;;195.02;109.65;;;4.30;1.00;;;;;;5075532;28;20057;-79
2021/12/23 10:44:29;;;;;;;155.18;87.78;;;4.50;1.00;;;;;;5057945;28;20048;-77
2021/12/23 10:47:00;;;;;;;275.02;154.93;;;4.70;1.00;;;;;;5075832;28;20132;-79
2021/12/23 10:49:32;;;;;;;243.35;136.63;;;4.70;1.00;;;;;;5075096;28;20051;-77
2021/12/23 10:52:04;;;;;;;274.55;153.80;;;5.00;1.00;;;;;;5075596;28;20036;-78
2021/12/23 11:00:18;;;;;;;236.65;130.90;;;5.30;1.00;;;;;;5087138;28;20044;-77
2021/12/23 11:03:05;;;;;;;236.00;130.73;;;5.30;1.00;;;;;;5067414;28;20048;-77
2021/12/23 11:05:36;;;;;;;;;;;5.30;1.00;;;;;;5058403;28;20044;-79
2021/12/23 11:08:15;;;;;;;230.68;126.90;;;5.30;1.00;;;;;;5075289;28;20376;-78
2021/12/23 11:11:13;;;;;;;207.48;116.25;;;5.30;1.00;;;;;;5075219;28;20094;-78
2021/12/23 11:28:06;;;;;;;164.57;86.25;;;5.40;1.00;;;;;;5074734;28;20056;-77
2021/12/23 11:39:31;;;;;;;118.97;70.55;;;5.80;1.00;;;;;;5042800;28;20056;-77
2021/12/23 11:42:10;;;;;;;127.38;70.10;;;6.20;1.00;;;;;;5074931;28;20090;-79
2021/12/23 11:44:39;;;;;;;125.55;71.75;;;6.30;1.00;;;;;;5075241;28;20052;-80
2021/12/23 11:47:10;;;;;;;136.82;74.82;;;6.50;1.00;;;;;;5074866;28;20044;-78
2021/12/23 11:49:40;;;;;;;134.52;74.25;;;6.50;1.00;;;;;;5074690;28;20111;-77
2021/12/23 11:52:09;;;;;;;126.10;72.65;;;6.50;1.00;;;;;;5075381;28;20071;-77
2021/12/23 11:54:39;;;;;;;124.72;72.82;;;6.60;1.00;;;;;;5078124;28;20127;-77
2021/12/23 11:57:11;;;;;;;134.13;74.35;;;6.60;1.00;;;;;;5078652;28;20127;-79
2021/12/23 11:59:42;;;;;;;149.85;76.05;;;6.60;1.00;;;;;;5079103;28;20047;-78
2021/12/23 12:02:15;;;;;;;141.70;82.57;;;6.60;1.00;;;;;;5085134;28;20051;-78
2021/12/23 12:04:43;;;;;;;121.18;70.95;;;6.60;1.00;;;;;;5083506;28;20134;-77
2021/12/23 12:07:18;;;;;;;119.70;69.55;;;6.70;1.00;;;;;;5060914;28;20079;-78
2021/12/23 12:09:57;;;;;;;128.65;73.03;;;6.60;1.00;;;;;;5079174;28;20052;-79
2021/12/23 12:12:25;;;;;;;134.13;76.22;;;6.70;1.00;;;;;;5078175;28;20052;-79
2021/12/23 12:14:55;;;;;;;131.55;76.40;;;6.90;1.00;;;;;;5060132;28;20067;-78
2021/12/23 12:17:42;;;;;;;134.60;77.70;;;7.00;1.00;;;;;;5078116;28;20040;-78
2021/12/23 12:20:38;;;;;;;130.45;75.20;;;7.00;1.00;;;;;;5077079;28;20127;-79
2021/12/23 12:23:11;;;;;;;126.15;70.20;;;7.00;1.00;;;;;;5076924;28;20514;-77
2021/12/23 12:25:56;;;;;;;130.30;69.38;;;7.20;1.00;;;;;;5078026;28;20053;-79
2021/12/23 12:28:29;;;;;;;145.70;76.93;;;7.20;1.00;;;;;;5078781;28;20094;-78
2021/12/23 12:31:01;;;;;;;151.70;84.97;;;7.20;1.00;;;;;;5078628;28;20064;-76
2021/12/23 12:33:41;;;;;;;140.20;81.03;;;7.10;1.00;;;;;;5059836;28;20514;-77
2021/12/23 12:36:11;;;;;;;122.32;69.25;;;7.10;1.00;;;;;;5059322;28;20049;-78
2021/12/23 12:38:42;;;;;;;127.75;75.63;;;7.20;1.00;;;;;;5080363;28;20576;-78
2021/12/23 12:41:13;;;;;;;163.13;84.78;;;7.20;1.00;;;;;;5080519;28;20066;-79
2021/12/23 12:44:04;;;;;;;155.40;87.47;;;7.30;1.00;;;;;;5081194;28;20044;-78
2021/12/23 12:47:10;;;;;;;159.02;90.03;;;7.30;1.00;;;;;;5078537;28;20079;-79
2021/12/23 12:49:41;;;;;;;155.00;91.20;;;7.40;1.00;;;;;;5069522;28;20044;-80
2021/12/23 12:52:17;;;;;;;159.70;85.40;;;7.40;1.00;;;;;;5086665;28;20040;-80
2021/12/23 12:54:50;;;;;;;152.18;87.85;;;7.50;1.00;;;;;;5083506;28;20104;-78
2021/12/23 12:57:19;;;;;;;169.18;91.85;;;7.50;1.00;;;;;;5081900;28;20084;-82
2021/12/23 12:59:49;;;;;;;176.45;95.47;;;7.50;1.00;;;;;;5083401;28;20476;-81
2021/12/23 13:02:35;;;;;;;182.48;100.55;;;7.60;1.00;;;;;;5065888;28;20045;-81
2021/12/23 13:05:05;;;;;;;190.37;108.73;;;7.60;1.00;;;;;;5081567;28;20530;-79
2021/12/23 13:07:53;;;;;;;184.82;107.75;;;7.60;1.00;;;;;;5084332;28;20450;-79
2021/12/23 13:10:36;;;;;;;191.85;108.80;;;7.60;1.00;;;;;;5071466;28;20108;-81
2021/12/23 13:13:14;;;;;;;214.27;113.82;;;7.60;1.00;;;;;;5091364;28;20058;-81
2021/12/23 13:16:01;;;;;;;232.45;129.18;;;7.60;1.00;;;;;;5094961;28;20102;-79
2021/12/23 13:18:29;;;;;;;240.48;131.25;;;7.50;1.00;;;;;;5075759;28;20048;-80
2021/12/23 13:20:58;;;;;;;205.00;118.45;;;7.60;1.00;;;;;;5094179;28;20048;-80
2021/12/23 13:23:32;;;;;;;221.95;124.63;;;7.60;1.00;;;;;;5095726;28;20059;-79
2021/12/23 13:26:03;;;;;;;227.52;129.65;;;7.60;1.00;;;;;;5094718;28;20041;-79
2021/12/23 13:28:36;;;;;;;261.15;143.98;;;7.60;1.00;;;;;;5093405;28;20048;-81
2021/12/23 13:31:06;;;;;;;298.20;164.32;;;7.60;1.00;;;;;;5072744;28;20049;-78
2021/12/23 13:33:42;;;;;;;329.42;189.93;;;7.60;1.00;;;;;;5069455;28;20143;-79
2021/12/23 13:36:14;;;;;;;343.77;196.10;;;7.60;1.00;;;;;;5086012;28;20461;-81
2021/12/23 13:38:42;;;;;;;353.45;213.57;;;7.50;1.00;;;;;;5086276;28;20090;-81
2021/12/23 13:41:28;;;;;;;402.17;235.57;;;7.40;1.00;;;;;;5068427;28;20060;-81